sensor_id;sensor_type;location;lat;lon;timestamp;temperature;humidity
41058;DHT22;66768;48.884;2.258;2023-04-15T00:00:10;11.20;99.90
41058;DHT22;66768;48.884;2.258;2023-04-15T00:02:37;11.10;99.90
41058;DHT22;66768;48.884;2.258;2023-04-15T00:05:05;11.10;99.90
41058;DHT22;66768;48.884;2.258;2023-04-15T00:07:33;11.20;99.90
41058;DHT22;66768;48.884;2.258;2023-04-15T00:10:00;11.20;99.90
41058;DHT22;66768;48.884;2.258;2023-04-15T00:12:27;11.10;99.90
41058;DHT22;66768;48.884;2.258;2023-04-15T00:14:54;11.20;99.90
41058;DHT22;66768;48.884;2.258;2023-04-15T00:17:21;11.10;99.90
41058;DHT22;66768;48.884;2.258;2023-04-15T00:19:48;11.20;99.90
41058;DHT22;66768;48.884;2.258;2023-04-15T00:22:15;11.20;99.90
41058;DHT22;66768;48.884;2.258;2023-04-15T00:24:44;11.10;99.90
41058;DHT22;66768;48.884;2.258;2023-04-15T00:27:11;11.10;99.90
41058;DHT22;66768;48.884;2.258;2023-04-15T00:29:38;11.10;99.90
41058;DHT22;66768;48.884;2.258;2023-04-15T00:32:05;11.20;99.90
41058;DHT22;66768;48.884;2.258;2023-04-15T00:34:31;11.20;99.90
41058;DHT22;66768;48.884;2.258;2023-04-15T00:36:59;11.20;99.90
41058;DHT22;66768;48.884;2.258;2023-04-15T00:39:33;11.20;99.90
41058;DHT22;66768;48.884;2.258;2023-04-15T00:42:03;11.20;99.90
41058;DHT22;66768;48.884;2.258;2023-04-15T00:44:30;11.10;99.90
41058;DHT22;66768;48.884;2.258;2023-04-15T00:46:58;11.20;99.90
41058;DHT22;66768;48.884;2.258;2023-04-15T00:49:26;11.20;99.90
41058;DHT22;66768;48.884;2.258;2023-04-15T00:51:54;11.20;99.90
41058;DHT22;66768;48.884;2.258;2023-04-15T00:54:21;11.20;99.90
41058;DHT22;66768;48.884;2.258;2023-04-15T00:56:48;11.20;99.90
41058;DHT22;66768;48.884;2.258;2023-04-15T00:59:16;11.20;99.90
41058;DHT22;66768;48.884;2.258;2023-04-15T01:01:44;11.10;99.90
41058;DHT22;66768;48.884;2.258;2023-04-15T01:04:11;11.10;99.90
41058;DHT22;66768;48.884;2.258;2023-04-15T01:06:38;11.10;99.90
41058;DHT22;66768;48.884;2.258;2023-04-15T01:09:05;11.10;99.90
41058;DHT22;66768;48.884;2.258;2023-04-15T01:11:32;11.00;99.90
41058;DHT22;66768;48.884;2.258;2023-04-15T01:14:00;11.00;99.90
41058;DHT22;66768;48.884;2.258;2023-04-15T01:16:28;11.00;99.90
41058;DHT22;66768;48.884;2.258;2023-04-15T01:18:55;11.00;99.90
41058;DHT22;66768;48.884;2.258;2023-04-15T01:21:22;10.90;99.90
41058;DHT22;66768;48.884;2.258;2023-04-15T01:23:50;10.90;99.90
41058;DHT22;66768;48.884;2.258;2023-04-15T01:26:20;10.90;99.90
41058;DHT22;66768;48.884;2.258;2023-04-15T01:28:48;10.90;99.90
41058;DHT22;66768;48.884;2.258;2023-04-15T01:31:15;10.90;99.90
41058;DHT22;66768;48.884;2.258;2023-04-15T01:33:42;10.90;99.90
41058;DHT22;66768;48.884;2.258;2023-04-15T01:36:09;10.90;99.90
41058;DHT22;66768;48.884;2.258;2023-04-15T01:38:37;10.90;99.90
41058;DHT22;66768;48.884;2.258;2023-04-15T01:41:04;10.90;99.90
41058;DHT22;66768;48.884;2.258;2023-04-15T01:43:33;10.80;99.90
41058;DHT22;66768;48.884;2.258;2023-04-15T01:46:01;10.80;99.90
41058;DHT22;66768;48.884;2.258;2023-04-15T01:48:28;10.80;99.90
41058;DHT22;66768;48.884;2.258;2023-04-15T01:50:55;10.70;99.90
41058;DHT22;66768;48.884;2.258;2023-04-15T01:53:23;10.80;99.90
41058;DHT22;66768;48.884;2.258;2023-04-15T01:55:50;10.70;99.90
41058;DHT22;66768;48.884;2.258;2023-04-15T01:58:17;10.70;99.90
41058;DHT22;66768;48.884;2.258;2023-04-15T02:00:45;10.70;99.90
41058;DHT22;66768;48.884;2.258;2023-04-15T02:03:12;10.60;99.90
41058;DHT22;66768;48.884;2.258;2023-04-15T02:05:39;10.70;99.90
41058;DHT22;66768;48.884;2.258;2023-04-15T02:08:06;10.70;99.90
41058;DHT22;66768;48.884;2.258;2023-04-15T02:10:32;10.60;99.90
41058;DHT22;66768;48.884;2.258;2023-04-15T02:12:59;10.60;99.90
41058;DHT22;66768;48.884;2.258;2023-04-15T02:15:26;10.60;99.90
41058;DHT22;66768;48.884;2.258;2023-04-15T02:17:54;10.60;99.90
41058;DHT22;66768;48.884;2.258;2023-04-15T02:20:22;10.60;99.90
41058;DHT22;66768;48.884;2.258;2023-04-15T02:22:48;10.60;99.90
41058;DHT22;66768;48.884;2.258;2023-04-15T02:25:15;10.70;99.90
41058;DHT22;66768;48.884;2.258;2023-04-15T02:27:43;10.60;99.90
41058;DHT22;66768;48.884;2.258;2023-04-15T02:30:10;10.70;99.90
41058;DHT22;66768;48.884;2.258;2023-04-15T02:32:37;10.60;99.90
41058;DHT22;66768;48.884;2.258;2023-04-15T02:35:06;10.60;99.90
41058;DHT22;66768;48.884;2.258;2023-04-15T02:37:35;10.50;99.90
41058;DHT22;66768;48.884;2.258;2023-04-15T02:40:08;10.60;99.90
41058;DHT22;66768;48.884;2.258;2023-04-15T02:42:36;10.50;99.90
41058;DHT22;66768;48.884;2.258;2023-04-15T02:45:04;10.50;99.90
41058;DHT22;66768;48.884;2.258;2023-04-15T02:47:31;10.50;99.90
41058;DHT22;66768;48.884;2.258;2023-04-15T02:49:58;10.50;99.90
41058;DHT22;66768;48.884;2.258;2023-04-15T02:52:27;10.60;99.90
41058;DHT22;66768;48.884;2.258;2023-04-15T02:54:54;10.60;99.90
41058;DHT22;66768;48.884;2.258;2023-04-15T02:57:25;10.60;99.90
41058;DHT22;66768;48.884;2.258;2023-04-15T02:59:52;10.60;99.90
41058;DHT22;66768;48.884;2.258;2023-04-15T03:02:18;10.70;99.90
41058;DHT22;66768;48.884;2.258;2023-04-15T03:04:45;10.60;99.90
41058;DHT22;66768;48.884;2.258;2023-04-15T03:07:12;10.60;99.90
41058;DHT22;66768;48.884;2.258;2023-04-15T03:09:40;10.50;99.90
41058;DHT22;66768;48.884;2.258;2023-04-15T03:12:07;10.50;99.90
41058;DHT22;66768;48.884;2.258;2023-04-15T03:14:34;10.50;99.90
41058;DHT22;66768;48.884;2.258;2023-04-15T03:17:01;10.50;99.90
41058;DHT22;66768;48.884;2.258;2023-04-15T03:19:28;10.60;99.90
41058;DHT22;66768;48.884;2.258;2023-04-15T03:21:55;10.60;99.90
41058;DHT22;66768;48.884;2.258;2023-04-15T03:24:22;10.60;99.90
41058;DHT22;66768;48.884;2.258;2023-04-15T03:26:50;10.60;99.90
41058;DHT22;66768;48.884;2.258;2023-04-15T03:29:17;10.50;99.90
41058;DHT22;66768;48.884;2.258;2023-04-15T03:31:44;10.50;99.90
41058;DHT22;66768;48.884;2.258;2023-04-15T03:34:11;10.50;99.90
41058;DHT22;66768;48.884;2.258;2023-04-15T03:36:38;10.50;99.90
41058;DHT22;66768;48.884;2.258;2023-04-15T03:39:05;10.40;99.90
41058;DHT22;66768;48.884;2.258;2023-04-15T03:41:32;10.40;99.90
41058;DHT22;66768;48.884;2.258;2023-04-15T03:44:00;10.50;99.90
41058;DHT22;66768;48.884;2.258;2023-04-15T03:46:27;10.40;99.90
41058;DHT22;66768;48.884;2.258;2023-04-15T03:48:53;10.40;99.90
41058;DHT22;66768;48.884;2.258;2023-04-15T03:51:20;10.40;99.90
41058;DHT22;66768;48.884;2.258;2023-04-15T03:53:47;10.40;99.90
41058;DHT22;66768;48.884;2.258;2023-04-15T03:56:14;10.40;99.90
41058;DHT22;66768;48.884;2.258;2023-04-15T03:58:41;10.50;99.90
41058;DHT22;66768;48.884;2.258;2023-04-15T04:01:09;10.40;99.90
41058;DHT22;66768;48.884;2.258;2023-04-15T04:03:36;10.40;99.90
41058;DHT22;66768;48.884;2.258;2023-04-15T04:06:03;10.30;99.90
41058;DHT22;66768;48.884;2.258;2023-04-15T04:08:30;10.30;99.90
41058;DHT22;66768;48.884;2.258;2023-04-15T04:10:56;10.30;99.90
41058;DHT22;66768;48.884;2.258;2023-04-15T04:13:23;10.30;99.90
41058;DHT22;66768;48.884;2.258;2023-04-15T04:15:50;10.20;99.90
41058;DHT22;66768;48.884;2.258;2023-04-15T04:18:19;10.30;99.90
41058;DHT22;66768;48.884;2.258;2023-04-15T04:20:45;10.20;99.90
41058;DHT22;66768;48.884;2.258;2023-04-15T04:23:12;10.20;99.90
41058;DHT22;66768;48.884;2.258;2023-04-15T04:25:39;10.20;99.90
41058;DHT22;66768;48.884;2.258;2023-04-15T04:28:06;10.20;99.90
41058;DHT22;66768;48.884;2.258;2023-04-15T04:30:34;10.20;99.90
41058;DHT22;66768;48.884;2.258;2023-04-15T04:33:01;10.20;99.90
41058;DHT22;66768;48.884;2.258;2023-04-15T04:35:29;10.10;99.90
41058;DHT22;66768;48.884;2.258;2023-04-15T04:37:59;10.20;99.90
41058;DHT22;66768;48.884;2.258;2023-04-15T04:40:26;10.20;99.90
41058;DHT22;66768;48.884;2.258;2023-04-15T04:42:53;10.20;99.90
41058;DHT22;66768;48.884;2.258;2023-04-15T04:45:20;10.20;99.90
41058;DHT22;66768;48.884;2.258;2023-04-15T04:47:47;10.10;99.90
41058;DHT22;66768;48.884;2.258;2023-04-15T04:50:14;10.10;99.90
41058;DHT22;66768;48.884;2.258;2023-04-15T04:52:42;10.10;99.90
41058;DHT22;66768;48.884;2.258;2023-04-15T04:55:09;10.20;99.90
41058;DHT22;66768;48.884;2.258;2023-04-15T04:57:36;10.20;99.90
41058;DHT22;66768;48.884;2.258;2023-04-15T05:00:05;10.20;99.90
41058;DHT22;66768;48.884;2.258;2023-04-15T05:02:33;10.20;99.90
41058;DHT22;66768;48.884;2.258;2023-04-15T05:05:00;10.20;99.90
41058;DHT22;66768;48.884;2.258;2023-04-15T05:07:27;10.30;99.90
41058;DHT22;66768;48.884;2.258;2023-04-15T05:09:55;10.20;99.90
41058;DHT22;66768;48.884;2.258;2023-04-15T05:12:22;10.30;99.90
41058;DHT22;66768;48.884;2.258;2023-04-15T05:14:49;10.20;99.90
41058;DHT22;66768;48.884;2.258;2023-04-15T05:17:16;10.30;99.90
41058;DHT22;66768;48.884;2.258;2023-04-15T05:19:42;10.30;99.90
41058;DHT22;66768;48.884;2.258;2023-04-15T05:22:09;10.20;99.90
41058;DHT22;66768;48.884;2.258;2023-04-15T05:24:36;10.30;99.90
41058;DHT22;66768;48.884;2.258;2023-04-15T05:27:04;10.30;99.90
41058;DHT22;66768;48.884;2.258;2023-04-15T05:29:32;10.30;99.90
41058;DHT22;66768;48.884;2.258;2023-04-15T05:31:59;10.30;99.90
41058;DHT22;66768;48.884;2.258;2023-04-15T05:34:26;10.30;99.90
41058;DHT22;66768;48.884;2.258;2023-04-15T05:36:53;10.20;99.90
41058;DHT22;66768;48.884;2.258;2023-04-15T05:39:20;10.30;99.90
41058;DHT22;66768;48.884;2.258;2023-04-15T05:41:47;10.30;99.90
41058;DHT22;66768;48.884;2.258;2023-04-15T05:44:15;10.30;99.90
41058;DHT22;66768;48.884;2.258;2023-04-15T05:46:42;10.30;99.90
41058;DHT22;66768;48.884;2.258;2023-04-15T05:49:09;10.30;99.90
41058;DHT22;66768;48.884;2.258;2023-04-15T05:51:35;10.30;99.90
41058;DHT22;66768;48.884;2.258;2023-04-15T05:54:02;10.30;99.90
41058;DHT22;66768;48.884;2.258;2023-04-15T05:56:29;10.40;99.90
41058;DHT22;66768;48.884;2.258;2023-04-15T05:58:56;10.30;99.90
41058;DHT22;66768;48.884;2.258;2023-04-15T06:01:24;10.30;99.90
41058;DHT22;66768;48.884;2.258;2023-04-15T06:03:51;10.30;99.90
41058;DHT22;66768;48.884;2.258;2023-04-15T06:06:18;10.30;99.90
41058;DHT22;66768;48.884;2.258;2023-04-15T06:08:45;10.30;99.90
41058;DHT22;66768;48.884;2.258;2023-04-15T06:11:12;10.40;99.90
41058;DHT22;66768;48.884;2.258;2023-04-15T06:13:39;10.40;99.90
41058;DHT22;66768;48.884;2.258;2023-04-15T06:16:06;10.40;99.90
41058;DHT22;66768;48.884;2.258;2023-04-15T06:18:34;10.40;99.90
41058;DHT22;66768;48.884;2.258;2023-04-15T06:21:01;10.50;99.90
41058;DHT22;66768;48.884;2.258;2023-04-15T06:23:28;10.50;99.90
41058;DHT22;66768;48.884;2.258;2023-04-15T06:25:55;10.50;99.90
41058;DHT22;66768;48.884;2.258;2023-04-15T06:28:22;10.50;99.90
41058;DHT22;66768;48.884;2.258;2023-04-15T06:30:49;10.50;99.90
41058;DHT22;66768;48.884;2.258;2023-04-15T06:33:16;10.50;99.90
41058;DHT22;66768;48.884;2.258;2023-04-15T06:35:44;10.60;99.90
41058;DHT22;66768;48.884;2.258;2023-04-15T06:38:11;10.50;99.90
41058;DHT22;66768;48.884;2.258;2023-04-15T06:40:38;10.60;99.90
41058;DHT22;66768;48.884;2.258;2023-04-15T06:43:07;10.60;99.90
41058;DHT22;66768;48.884;2.258;2023-04-15T06:45:34;10.70;99.90
41058;DHT22;66768;48.884;2.258;2023-04-15T06:48:01;10.60;99.90
41058;DHT22;66768;48.884;2.258;2023-04-15T06:50:28;10.60;99.90
41058;DHT22;66768;48.884;2.258;2023-04-15T06:52:56;10.60;99.90
41058;DHT22;66768;48.884;2.258;2023-04-15T06:55:23;10.60;99.90
41058;DHT22;66768;48.884;2.258;2023-04-15T06:57:50;10.60;99.90
41058;DHT22;66768;48.884;2.258;2023-04-15T07:00:17;10.60;99.90
41058;DHT22;66768;48.884;2.258;2023-04-15T07:02:44;10.70;99.90
41058;DHT22;66768;48.884;2.258;2023-04-15T07:05:11;10.60;99.90
41058;DHT22;66768;48.884;2.258;2023-04-15T07:07:38;10.70;99.90
41058;DHT22;66768;48.884;2.258;2023-04-15T07:10:08;10.70;99.90
41058;DHT22;66768;48.884;2.258;2023-04-15T07:12:36;10.70;99.90
41058;DHT22;66768;48.884;2.258;2023-04-15T07:15:04;10.70;99.90
41058;DHT22;66768;48.884;2.258;2023-04-15T07:17:31;10.70;99.90
41058;DHT22;66768;48.884;2.258;2023-04-15T07:19:58;10.70;99.90
41058;DHT22;66768;48.884;2.258;2023-04-15T07:22:25;10.70;99.90
41058;DHT22;66768;48.884;2.258;2023-04-15T07:24:52;10.60;99.90
41058;DHT22;66768;48.884;2.258;2023-04-15T07:27:20;10.70;99.90
41058;DHT22;66768;48.884;2.258;2023-04-15T07:29:47;10.60;99.90
41058;DHT22;66768;48.884;2.258;2023-04-15T07:32:16;10.60;99.90
41058;DHT22;66768;48.884;2.258;2023-04-15T07:34:43;10.70;99.90
41058;DHT22;66768;48.884;2.258;2023-04-15T07:37:10;10.70;99.90
41058;DHT22;66768;48.884;2.258;2023-04-15T07:39:37;10.60;99.90
41058;DHT22;66768;48.884;2.258;2023-04-15T07:42:04;10.60;99.90
41058;DHT22;66768;48.884;2.258;2023-04-15T07:44:32;10.60;99.90
41058;DHT22;66768;48.884;2.258;2023-04-15T07:46:59;10.60;99.90
41058;DHT22;66768;48.884;2.258;2023-04-15T07:49:26;10.60;99.90
41058;DHT22;66768;48.884;2.258;2023-04-15T07:51:53;10.60;99.90
41058;DHT22;66768;48.884;2.258;2023-04-15T07:54:22;10.60;99.90
41058;DHT22;66768;48.884;2.258;2023-04-15T07:56:48;10.70;99.90
41058;DHT22;66768;48.884;2.258;2023-04-15T07:59:17;10.70;99.90
41058;DHT22;66768;48.884;2.258;2023-04-15T08:01:45;10.70;99.90
41058;DHT22;66768;48.884;2.258;2023-04-15T08:04:12;10.70;99.90
41058;DHT22;66768;48.884;2.258;2023-04-15T08:06:39;10.70;99.90
41058;DHT22;66768;48.884;2.258;2023-04-15T08:09:06;10.70;99.90
41058;DHT22;66768;48.884;2.258;2023-04-15T08:11:34;10.70;99.90
41058;DHT22;66768;48.884;2.258;2023-04-15T08:14:01;10.60;99.90
41058;DHT22;66768;48.884;2.258;2023-04-15T08:16:27;10.70;99.90
41058;DHT22;66768;48.884;2.258;2023-04-15T08:18:56;10.70;99.90
41058;DHT22;66768;48.884;2.258;2023-04-15T08:21:23;10.70;99.90
41058;DHT22;66768;48.884;2.258;2023-04-15T08:23:52;10.80;99.90
41058;DHT22;66768;48.884;2.258;2023-04-15T08:26:19;10.70;99.90
41058;DHT22;66768;48.884;2.258;2023-04-15T08:28:47;10.70;99.90
41058;DHT22;66768;48.884;2.258;2023-04-15T08:31:15;10.80;99.90
41058;DHT22;66768;48.884;2.258;2023-04-15T08:33:42;10.80;99.90
41058;DHT22;66768;48.884;2.258;2023-04-15T08:36:11;10.80;99.90
41058;DHT22;66768;48.884;2.258;2023-04-15T08:38:38;10.80;99.90
41058;DHT22;66768;48.884;2.258;2023-04-15T08:41:09;10.80;99.90
41058;DHT22;66768;48.884;2.258;2023-04-15T08:43:41;10.90;99.90
41058;DHT22;66768;48.884;2.258;2023-04-15T08:46:12;10.90;99.90
41058;DHT22;66768;48.884;2.258;2023-04-15T08:48:40;11.10;99.90
41058;DHT22;66768;48.884;2.258;2023-04-15T08:51:08;11.20;99.90
41058;DHT22;66768;48.884;2.258;2023-04-15T08:53:36;11.20;99.90
41058;DHT22;66768;48.884;2.258;2023-04-15T08:56:04;11.20;99.90
41058;DHT22;66768;48.884;2.258;2023-04-15T08:58:35;11.30;99.90
41058;DHT22;66768;48.884;2.258;2023-04-15T09:01:01;11.30;99.90
41058;DHT22;66768;48.884;2.258;2023-04-15T09:03:29;11.40;99.90
41058;DHT22;66768;48.884;2.258;2023-04-15T09:05:56;11.40;99.90
41058;DHT22;66768;48.884;2.258;2023-04-15T09:08:23;11.40;99.90
41058;DHT22;66768;48.884;2.258;2023-04-15T09:10:53;11.40;99.90
41058;DHT22;66768;48.884;2.258;2023-04-15T09:13:19;11.50;99.90
41058;DHT22;66768;48.884;2.258;2023-04-15T09:15:46;11.40;99.90
41058;DHT22;66768;48.884;2.258;2023-04-15T09:18:26;11.40;99.90
41058;DHT22;66768;48.884;2.258;2023-04-15T09:20:53;11.40;99.90
41058;DHT22;66768;48.884;2.258;2023-04-15T09:23:20;11.40;99.90
41058;DHT22;66768;48.884;2.258;2023-04-15T09:25:47;11.30;99.90
41058;DHT22;66768;48.884;2.258;2023-04-15T09:28:23;11.40;99.90
41058;DHT22;66768;48.884;2.258;2023-04-15T09:30:51;11.30;99.90
41058;DHT22;66768;48.884;2.258;2023-04-15T09:33:20;11.30;99.90
41058;DHT22;66768;48.884;2.258;2023-04-15T09:35:56;11.30;99.90
41058;DHT22;66768;48.884;2.258;2023-04-15T09:38:23;11.30;99.90
41058;DHT22;66768;48.884;2.258;2023-04-15T09:40:50;11.30;99.90
41058;DHT22;66768;48.884;2.258;2023-04-15T09:43:19;11.40;99.90
41058;DHT22;66768;48.884;2.258;2023-04-15T09:45:48;11.40;99.90
41058;DHT22;66768;48.884;2.258;2023-04-15T09:48:18;11.40;99.90
41058;DHT22;66768;48.884;2.258;2023-04-15T09:50:46;11.40;99.90
41058;DHT22;66768;48.884;2.258;2023-04-15T09:53:16;11.50;99.90
41058;DHT22;66768;48.884;2.258;2023-04-15T09:55:45;11.60;99.90
41058;DHT22;66768;48.884;2.258;2023-04-15T09:58:20;11.60;99.90
41058;DHT22;66768;48.884;2.258;2023-04-15T10:00:48;11.60;99.90
41058;DHT22;66768;48.884;2.258;2023-04-15T10:03:19;11.70;99.90
41058;DHT22;66768;48.884;2.258;2023-04-15T10:05:48;11.80;99.90
41058;DHT22;66768;48.884;2.258;2023-04-15T10:08:18;11.80;99.90
41058;DHT22;66768;48.884;2.258;2023-04-15T10:10:46;11.80;99.90
41058;DHT22;66768;48.884;2.258;2023-04-15T10:13:15;11.90;99.90
41058;DHT22;66768;48.884;2.258;2023-04-15T10:15:49;11.90;99.90
41058;DHT22;66768;48.884;2.258;2023-04-15T10:18:19;12.00;99.90
41058;DHT22;66768;48.884;2.258;2023-04-15T10:20:47;11.90;99.90
41058;DHT22;66768;48.884;2.258;2023-04-15T10:23:14;12.00;99.90
41058;DHT22;66768;48.884;2.258;2023-04-15T10:25:42;12.00;99.90
41058;DHT22;66768;48.884;2.258;2023-04-15T10:28:09;12.00;99.90
41058;DHT22;66768;48.884;2.258;2023-04-15T10:30:37;12.10;99.90
41058;DHT22;66768;48.884;2.258;2023-04-15T10:33:07;12.20;99.90
41058;DHT22;66768;48.884;2.258;2023-04-15T10:35:35;12.10;99.90
41058;DHT22;66768;48.884;2.258;2023-04-15T10:38:31;12.30;99.90
41058;DHT22;66768;48.884;2.258;2023-04-15T10:41:14;12.30;99.90
41058;DHT22;66768;48.884;2.258;2023-04-15T10:43:49;12.20;99.90
41058;DHT22;66768;48.884;2.258;2023-04-15T10:46:24;12.20;99.90
41058;DHT22;66768;48.884;2.258;2023-04-15T10:49:06;12.30;99.90
41058;DHT22;66768;48.884;2.258;2023-04-15T10:51:37;12.40;99.90
41058;DHT22;66768;48.884;2.258;2023-04-15T10:54:08;12.40;99.90
41058;DHT22;66768;48.884;2.258;2023-04-15T10:56:40;12.30;99.90
41058;DHT22;66768;48.884;2.258;2023-04-15T10:59:08;12.30;99.90
41058;DHT22;66768;48.884;2.258;2023-04-15T11:01:59;12.30;99.90
41058;DHT22;66768;48.884;2.258;2023-04-15T11:04:52;12.30;99.90
41058;DHT22;66768;48.884;2.258;2023-04-15T11:07:36;12.30;99.90
41058;DHT22;66768;48.884;2.258;2023-04-15T11:13:21;12.30;99.90
41058;DHT22;66768;48.884;2.258;2023-04-15T11:15:49;12.30;99.90
41058;DHT22;66768;48.884;2.258;2023-04-15T11:18:18;12.30;99.90
41058;DHT22;66768;48.884;2.258;2023-04-15T11:20:49;12.40;99.90
41058;DHT22;66768;48.884;2.258;2023-04-15T11:23:17;12.40;99.90
41058;DHT22;66768;48.884;2.258;2023-04-15T11:25:45;12.40;99.90
41058;DHT22;66768;48.884;2.258;2023-04-15T11:28:12;12.50;99.90
41058;DHT22;66768;48.884;2.258;2023-04-15T11:30:39;12.40;99.90
41058;DHT22;66768;48.884;2.258;2023-04-15T11:33:08;12.50;99.90
41058;DHT22;66768;48.884;2.258;2023-04-15T11:35:36;12.50;99.90
41058;DHT22;66768;48.884;2.258;2023-04-15T11:38:08;12.50;99.90
41058;DHT22;66768;48.884;2.258;2023-04-15T11:40:36;12.50;99.90
41058;DHT22;66768;48.884;2.258;2023-04-15T11:43:04;12.60;99.90
41058;DHT22;66768;48.884;2.258;2023-04-15T11:45:32;12.70;99.90
41058;DHT22;66768;48.884;2.258;2023-04-15T11:48:09;12.70;99.90
41058;DHT22;66768;48.884;2.258;2023-04-15T11:50:37;12.70;99.90
41058;DHT22;66768;48.884;2.258;2023-04-15T11:53:08;12.80;99.90
41058;DHT22;66768;48.884;2.258;2023-04-15T11:55:42;12.80;99.90
41058;DHT22;66768;48.884;2.258;2023-04-15T11:58:12;12.80;99.90
41058;DHT22;66768;48.884;2.258;2023-04-15T12:00:44;12.80;99.90
41058;DHT22;66768;48.884;2.258;2023-04-15T12:03:23;12.90;99.90
41058;DHT22;66768;48.884;2.258;2023-04-15T12:06:08;12.90;99.90
41058;DHT22;66768;48.884;2.258;2023-04-15T12:08:54;12.90;99.90
41058;DHT22;66768;48.884;2.258;2023-04-15T12:14:17;12.90;99.90
41058;DHT22;66768;48.884;2.258;2023-04-15T12:16:45;12.90;99.90
41058;DHT22;66768;48.884;2.258;2023-04-15T12:19:14;12.90;99.90
41058;DHT22;66768;48.884;2.258;2023-04-15T12:21:44;12.90;99.90
41058;DHT22;66768;48.884;2.258;2023-04-15T12:24:13;12.90;99.90
41058;DHT22;66768;48.884;2.258;2023-04-15T12:26:45;12.90;99.90
41058;DHT22;66768;48.884;2.258;2023-04-15T12:29:13;12.90;99.90
41058;DHT22;66768;48.884;2.258;2023-04-15T12:31:48;12.90;99.90
41058;DHT22;66768;48.884;2.258;2023-04-15T12:34:17;13.00;99.90
41058;DHT22;66768;48.884;2.258;2023-04-15T12:36:44;13.00;99.90
41058;DHT22;66768;48.884;2.258;2023-04-15T12:39:13;13.00;99.90
41058;DHT22;66768;48.884;2.258;2023-04-15T12:41:40;13.00;99.90
41058;DHT22;66768;48.884;2.258;2023-04-15T12:44:07;13.10;99.90
41058;DHT22;66768;48.884;2.258;2023-04-15T12:46:34;13.20;99.90
41058;DHT22;66768;48.884;2.258;2023-04-15T12:49:01;13.20;99.90
41058;DHT22;66768;48.884;2.258;2023-04-15T12:51:28;13.30;99.90
41058;DHT22;66768;48.884;2.258;2023-04-15T12:53:56;13.30;99.90
41058;DHT22;66768;48.884;2.258;2023-04-15T12:56:24;13.20;99.90
41058;DHT22;66768;48.884;2.258;2023-04-15T12:58:51;13.20;99.90
41058;DHT22;66768;48.884;2.258;2023-04-15T13:01:18;13.20;99.90
41058;DHT22;66768;48.884;2.258;2023-04-15T13:03:45;13.20;99.90
41058;DHT22;66768;48.884;2.258;2023-04-15T13:06:12;13.30;99.90
41058;DHT22;66768;48.884;2.258;2023-04-15T13:08:39;13.30;99.90
41058;DHT22;66768;48.884;2.258;2023-04-15T13:11:06;13.20;99.90
41058;DHT22;66768;48.884;2.258;2023-04-15T13:13:34;13.30;99.90
41058;DHT22;66768;48.884;2.258;2023-04-15T13:16:01;13.20;99.90
41058;DHT22;66768;48.884;2.258;2023-04-15T13:18:28;13.10;99.90
41058;DHT22;66768;48.884;2.258;2023-04-15T13:20:55;13.10;99.90
41058;DHT22;66768;48.884;2.258;2023-04-15T13:23:22;13.00;99.90
41058;DHT22;66768;48.884;2.258;2023-04-15T13:25:49;13.00;99.90
41058;DHT22;66768;48.884;2.258;2023-04-15T13:28:16;13.10;99.90
41058;DHT22;66768;48.884;2.258;2023-04-15T13:30:44;13.00;99.90
41058;DHT22;66768;48.884;2.258;2023-04-15T13:33:13;13.10;99.90
41058;DHT22;66768;48.884;2.258;2023-04-15T13:35:40;13.00;99.90
41058;DHT22;66768;48.884;2.258;2023-04-15T13:38:07;13.00;99.90
41058;DHT22;66768;48.884;2.258;2023-04-15T13:40:33;13.00;99.90
41058;DHT22;66768;48.884;2.258;2023-04-15T13:43:00;13.10;99.90
41058;DHT22;66768;48.884;2.258;2023-04-15T13:45:27;13.10;99.90
41058;DHT22;66768;48.884;2.258;2023-04-15T13:47:56;13.20;99.90
41058;DHT22;66768;48.884;2.258;2023-04-15T13:50:22;13.30;99.90
41058;DHT22;66768;48.884;2.258;2023-04-15T13:52:49;13.30;99.90
41058;DHT22;66768;48.884;2.258;2023-04-15T13:55:16;13.40;99.90
41058;DHT22;66768;48.884;2.258;2023-04-15T13:57:43;13.40;99.90
41058;DHT22;66768;48.884;2.258;2023-04-15T14:00:12;13.50;99.90
41058;DHT22;66768;48.884;2.258;2023-04-15T14:02:39;13.50;99.90
41058;DHT22;66768;48.884;2.258;2023-04-15T14:05:09;13.60;99.90
41058;DHT22;66768;48.884;2.258;2023-04-15T14:07:36;13.60;99.90
41058;DHT22;66768;48.884;2.258;2023-04-15T14:10:03;13.60;99.90
41058;DHT22;66768;48.884;2.258;2023-04-15T14:12:30;13.60;99.90
41058;DHT22;66768;48.884;2.258;2023-04-15T14:14:57;13.70;99.90
41058;DHT22;66768;48.884;2.258;2023-04-15T14:17:24;13.70;99.90
41058;DHT22;66768;48.884;2.258;2023-04-15T14:19:51;13.80;99.90
41058;DHT22;66768;48.884;2.258;2023-04-15T14:22:19;13.80;99.90
41058;DHT22;66768;48.884;2.258;2023-04-15T14:24:46;13.80;99.90
41058;DHT22;66768;48.884;2.258;2023-04-15T14:27:13;13.90;99.90
41058;DHT22;66768;48.884;2.258;2023-04-15T14:29:41;13.80;99.90
41058;DHT22;66768;48.884;2.258;2023-04-15T14:32:08;13.80;99.90
41058;DHT22;66768;48.884;2.258;2023-04-15T14:34:34;13.80;99.90
41058;DHT22;66768;48.884;2.258;2023-04-15T14:37:02;13.70;99.90
41058;DHT22;66768;48.884;2.258;2023-04-15T14:39:30;13.70;99.90
41058;DHT22;66768;48.884;2.258;2023-04-15T14:41:57;13.70;99.90
41058;DHT22;66768;48.884;2.258;2023-04-15T14:44:24;13.70;99.90
41058;DHT22;66768;48.884;2.258;2023-04-15T14:46:51;13.70;99.90
41058;DHT22;66768;48.884;2.258;2023-04-15T14:49:19;13.70;99.90
41058;DHT22;66768;48.884;2.258;2023-04-15T14:51:46;13.80;99.90
41058;DHT22;66768;48.884;2.258;2023-04-15T14:54:13;13.70;99.90
41058;DHT22;66768;48.884;2.258;2023-04-15T14:56:41;13.80;99.90
41058;DHT22;66768;48.884;2.258;2023-04-15T14:59:08;13.80;99.90
41058;DHT22;66768;48.884;2.258;2023-04-15T15:01:35;13.80;99.90
41058;DHT22;66768;48.884;2.258;2023-04-15T15:04:02;13.90;99.90
41058;DHT22;66768;48.884;2.258;2023-04-15T15:06:29;13.80;99.90
41058;DHT22;66768;48.884;2.258;2023-04-15T15:08:56;13.90;99.90
41058;DHT22;66768;48.884;2.258;2023-04-15T15:11:23;13.90;99.90
41058;DHT22;66768;48.884;2.258;2023-04-15T15:13:51;13.90;99.90
41058;DHT22;66768;48.884;2.258;2023-04-15T15:16:18;13.90;99.90
41058;DHT22;66768;48.884;2.258;2023-04-15T15:18:45;13.90;99.90
41058;DHT22;66768;48.884;2.258;2023-04-15T15:21:12;13.80;99.90
41058;DHT22;66768;48.884;2.258;2023-04-15T15:23:38;13.80;99.90
41058;DHT22;66768;48.884;2.258;2023-04-15T15:26:05;13.80;99.90
41058;DHT22;66768;48.884;2.258;2023-04-15T15:28:33;13.80;99.90
41058;DHT22;66768;48.884;2.258;2023-04-15T15:31:01;13.80;99.90
41058;DHT22;66768;48.884;2.258;2023-04-15T15:33:29;13.80;99.90
41058;DHT22;66768;48.884;2.258;2023-04-15T15:35:57;13.80;99.90
41058;DHT22;66768;48.884;2.258;2023-04-15T15:38:24;13.80;99.90
41058;DHT22;66768;48.884;2.258;2023-04-15T15:40:51;13.80;99.90